General Aviation Weather

Text Reports

Enter one or more of the following location identifiers separated by a space:

Zip Code, Four-Character ICAO or Three-Character IATA airport codes.

METAR - Aviation Routine Weather Report
KGBG - Galesburg, Illinois
Updated at 12:35 AM GMT on November 23, 2014 (6:35 PM CST):
METAR KGBG 230035Z AUTO 17008KT 10SM OVC021 12/09 A2984 RMK AO2 T01220091
TAF - Terminal Area Forecast
KGBG - Galesburg, Illinois
Updated at 12:35 AM GMT on November 23, 2014 (6:35 PM CST):
No TAF is currently available for this location.
Decoded:
No decoded TAF is available.
PIREP - Pilot Weather Report
KGBG - Galesburg, Illinois
Updated at 12:35 AM GMT on November 23, 2014 (6:35 PM CST):
No PIREP is currently available for this location.
AIRMET - Airmens Meteorological Information
KGBG - Galesburg, Illinois
Updated at 12:35 AM GMT on November 23, 2014 (6:35 PM CST):
No AIRMET is currently available for this location.
SIGMET - Significant Meteorological Information
KGBG - Galesburg, Illinois
Updated at 12:35 AM GMT on November 23, 2014 (6:35 PM CST):
No SIGMET is currently available for this location.
NOTAM - Notice to Airmen
KGBG - Galesburg, Illinois
Updated at 12:35 AM GMT on November 23, 2014 (6:35 PM CST):
No NOTAM is currently available for this location.
Forecast Area
KGBG - Galesburg, Illinois
Updated at 12:35 AM GMT on November 23, 2014 (6:35 PM CST):
No NOTAM is currently available for this location.
Aviation Weather Maps